Ana Sayfa
METAR-TAF:

METAR-TAF

Havaalanları :

Philip, Güney Dakota, Amerika Birleşik Devletleri

Enlem: 44-03-04N, Boylam: 101-36-04W, yükseklik: 673 m

Güncel hava durumu gözlemi

Rapor saat 12:55 UTC de 19 dakika önce yapıldı.
Rüzgar kuzeybatıdan 19 kt ve 25 kt'a kadar ani rüzgarlar
Sıcaklık 17°C
Nem 52%
Basınç 1008 hPa
Görüş mesafesi: 16.1 km
Açık gökyüzü

METAR: KPHP 161255Z AUTO 31019G25KT 10SM CLR 17/07 A2978 RMK AO2 SLP065 T01670067 $

Saat: 07:14 (13:14 UTC)


TAF: eksik

4.000'den fazla havaalanı için hava durumu gözlemleri ve tahminleri (METAR ve TAF raporları).

Kullanılabilir istasyonlar harita üzerinde sarı ve kırmızı noktalarla gösterilir.

İstasyonun adını görmek için fareyi noktanın üzerinde gezdirin.

Sonrasında hava gözlem ve tahminlerini görmek için tıklayın.

Haritayı değiştirmek için: yaklaştırmak için siyah artı işaretli yeşil düğmeye ve uzaklaştırmak için de eksi işaretli düğmeye hızla tıklayın; bitişik haritalar için yeşil okları kullanın.


METAR-TAF: